Detall de PIREP

Printer-friendly versionPDF version

[2014/10/17 09:44:00]
Flight IATA:CT3255
Pilot Number:042
Company ICAO:CAT
Aircraft Type:B463/A
PAX:28
Aircraft Registration:PAX
Departing Airport: LDZA
Destination Airport: LEPA
Alternate Airport:LEMH
Online: VATSIM
Route:KOTOR UT742 NAKIT UL615 AKADO UM196 LAGEN UM859 VAMTU UM984 DIVKO UN852 VERSO UL129 LUNIK
Flight Level:F340
No Slew and time accel
No pause
Crash detect
Detect pilot in Cockpit between each 30 and 45 minutes
09:44 Zero fuel Weight: 80445 Lbs, Fuel Weight: 22755 Lbs
09:44 VATSIM:LDZA 170830Z 22011KT CAVOK 21/16 Q1011 NOSIG
09:44 VATSIM:LEPA 170800Z 00000KT 9999 FEW012 23/20 Q1018 NOSIG
09:50 Parking Brakes off
09:56 Take-off
09:56 Take off Weight: 102237 Lbs
09:56 Wind: 220º @ 011 Knots Heading: 047º
09:56 POS N45º 44´ 44´´ E016º 04´ 23´´
09:56 Flaps:2 at 151 Knots
09:56 Gear Up: 150 Knots
09:56 Flaps:1 at 174 Knots
09:57 Flaps:0 at 189 Knots
10:11 Wind:288º@065 Knots Heading: 258º Ground Speed: 313 Knots Altitude 27700 ft
10:17 TOC
10:17 Fuel Weight: 18699 Lb
10:26 Wind:278º@080 Knots Heading: 282º Ground Speed: 330 Knots Altitude 33996 ft
10:41 Wind:270º@081 Knots Heading: 254º Ground Speed: 333 Knots Altitude 33979 ft
10:56 Wind:264º@089 Knots Heading: 254º Ground Speed: 323 Knots Altitude 34028 ft
11:11 Wind:262º@092 Knots Heading: 237º Ground Speed: 328 Knots Altitude 34064 ft
11:26 Wind:252º@065 Knots Heading: 248º Ground Speed: 345 Knots Altitude 34068 ft
11:41 Wind:252º@065 Knots Heading: 215º Ground Speed: 361 Knots Altitude 34117 ft
11:55 TOD
11:55 Fuel Weight: 12432 Lb
11:56 Wind:245º@046 Knots Heading: 204º Ground Speed: 368 Knots Altitude 33307 ft
12:11 Wind:247º@017 Knots Heading: 182º Ground Speed: 263 Knots Altitude 12900 ft
12:19 Flaps:1 at 193 Knots
12:20 Flaps:2 at 178 Knots
12:20Flaps:3 at 181 Knots
12:20 Gear Down: 181 Knots
12:20 Flaps:4 at 181 Knots
12:20 Flaps:3 at 171 Knots
12:21 Flaps:4 at 159 Knots
12:24 TouchDown:Rate -245 ft/min Speed: 114 Knots
12:24 VATSIM:LEPA 171100Z 21009KT 170V250 9999 FEW018 26/22 Q1019 NOSIG
12:24 Land
12:24 Wind:214º@010 Knots
12:24 Heading: 236º
12:24 Flight Duration: 02:28
12:24 Landing Weight: 92002 Lbs
12:24 POS N39º 32´ 56´´ E002º 44´ 53´´
12:29 Parking brakes on
12:29 Block to Block Duration: 02:39
12:29 Final Fuel: 11029 Lbls
12:29 Spent Fuel: 11726 Lbls
12:29 Flight Length: 778 NM
12:29 TOD Land Length: 122 NM

Exportar CSV

Powered by Drupal - Modified by Danger4k